sensor_id;sensor_type;location;lat;lon;timestamp;temperature;humidity
39347;DHT22;26262;49.836;6.632;2024-02-26T00:01:09;6.20;99.90
39347;DHT22;26262;49.836;6.632;2024-02-26T00:03:35;6.10;99.90
39347;DHT22;26262;49.836;6.632;2024-02-26T00:06:02;6.10;99.90
39347;DHT22;26262;49.836;6.632;2024-02-26T00:08:28;6.10;99.90
39347;DHT22;26262;49.836;6.632;2024-02-26T00:10:53;6.00;99.90
39347;DHT22;26262;49.836;6.632;2024-02-26T00:13:19;6.10;99.90
39347;DHT22;26262;49.836;6.632;2024-02-26T00:15:46;6.10;99.90
39347;DHT22;26262;49.836;6.632;2024-02-26T00:18:11;6.00;99.90
39347;DHT22;26262;49.836;6.632;2024-02-26T00:20:37;6.10;99.90
39347;DHT22;26262;49.836;6.632;2024-02-26T00:23:04;6.10;99.90
39347;DHT22;26262;49.836;6.632;2024-02-26T00:25:30;6.10;99.90
39347;DHT22;26262;49.836;6.632;2024-02-26T00:27:55;6.10;99.90
39347;DHT22;26262;49.836;6.632;2024-02-26T00:30:21;6.20;99.90
39347;DHT22;26262;49.836;6.632;2024-02-26T00:32:47;6.20;99.90
39347;DHT22;26262;49.836;6.632;2024-02-26T00:35:13;6.30;99.90
39347;DHT22;26262;49.836;6.632;2024-02-26T00:37:40;6.20;99.90
39347;DHT22;26262;49.836;6.632;2024-02-26T00:40:08;6.20;99.90
39347;DHT22;26262;49.836;6.632;2024-02-26T00:42:34;6.30;99.90
39347;DHT22;26262;49.836;6.632;2024-02-26T00:44:59;6.20;99.90
39347;DHT22;26262;49.836;6.632;2024-02-26T00:47:25;6.30;99.90
39347;DHT22;26262;49.836;6.632;2024-02-26T00:49:50;6.40;99.90
39347;DHT22;26262;49.836;6.632;2024-02-26T00:52:16;6.50;99.90
39347;DHT22;26262;49.836;6.632;2024-02-26T00:54:41;6.60;99.90
39347;DHT22;26262;49.836;6.632;2024-02-26T00:57:07;6.60;99.90
39347;DHT22;26262;49.836;6.632;2024-02-26T00:59:32;6.70;99.90
39347;DHT22;26262;49.836;6.632;2024-02-26T01:01:58;6.70;99.90
39347;DHT22;26262;49.836;6.632;2024-02-26T01:04:25;6.70;99.90
39347;DHT22;26262;49.836;6.632;2024-02-26T01:06:50;6.80;99.90
39347;DHT22;26262;49.836;6.632;2024-02-26T01:09:16;6.80;99.90
39347;DHT22;26262;49.836;6.632;2024-02-26T01:11:43;6.90;99.90
39347;DHT22;26262;49.836;6.632;2024-02-26T01:14:09;6.90;99.90
39347;DHT22;26262;49.836;6.632;2024-02-26T01:16:34;6.90;99.90
39347;DHT22;26262;49.836;6.632;2024-02-26T01:19:00;6.90;99.90
39347;DHT22;26262;49.836;6.632;2024-02-26T01:21:26;6.90;99.90
39347;DHT22;26262;49.836;6.632;2024-02-26T01:23:54;7.00;99.90
39347;DHT22;26262;49.836;6.632;2024-02-26T01:26:20;7.00;99.90
39347;DHT22;26262;49.836;6.632;2024-02-26T01:28:47;7.00;99.90
39347;DHT22;26262;49.836;6.632;2024-02-26T01:31:13;7.10;99.90
39347;DHT22;26262;49.836;6.632;2024-02-26T01:33:38;7.00;99.90
39347;DHT22;26262;49.836;6.632;2024-02-26T01:36:04;6.90;99.90
39347;DHT22;26262;49.836;6.632;2024-02-26T01:38:29;6.80;99.90
39347;DHT22;26262;49.836;6.632;2024-02-26T01:40:55;6.80;99.90
39347;DHT22;26262;49.836;6.632;2024-02-26T01:43:21;6.80;99.90
39347;DHT22;26262;49.836;6.632;2024-02-26T01:45:46;6.80;99.90
39347;DHT22;26262;49.836;6.632;2024-02-26T01:48:12;6.80;99.90
39347;DHT22;26262;49.836;6.632;2024-02-26T01:50:40;6.70;99.90
39347;DHT22;26262;49.836;6.632;2024-02-26T01:53:06;6.80;99.90
39347;DHT22;26262;49.836;6.632;2024-02-26T01:55:32;6.70;99.90
39347;DHT22;26262;49.836;6.632;2024-02-26T01:57:58;6.70;99.90
39347;DHT22;26262;49.836;6.632;2024-02-26T02:00:24;6.70;99.90
39347;DHT22;26262;49.836;6.632;2024-02-26T02:02:51;6.70;99.90
39347;DHT22;26262;49.836;6.632;2024-02-26T02:05:17;6.70;99.90
39347;DHT22;26262;49.836;6.632;2024-02-26T02:07:43;6.60;99.90
39347;DHT22;26262;49.836;6.632;2024-02-26T02:10:09;6.60;99.90
39347;DHT22;26262;49.836;6.632;2024-02-26T02:12:35;6.50;99.90
39347;DHT22;26262;49.836;6.632;2024-02-26T02:15:04;6.50;99.90
39347;DHT22;26262;49.836;6.632;2024-02-26T02:17:30;6.50;99.90
39347;DHT22;26262;49.836;6.632;2024-02-26T02:19:56;6.50;99.90
39347;DHT22;26262;49.836;6.632;2024-02-26T02:22:22;6.50;99.90
39347;DHT22;26262;49.836;6.632;2024-02-26T02:24:48;6.50;99.90
39347;DHT22;26262;49.836;6.632;2024-02-26T02:27:14;6.40;99.90
39347;DHT22;26262;49.836;6.632;2024-02-26T02:29:40;6.40;99.90
39347;DHT22;26262;49.836;6.632;2024-02-26T02:32:06;6.30;99.90
39347;DHT22;26262;49.836;6.632;2024-02-26T02:34:32;6.30;99.90
39347;DHT22;26262;49.836;6.632;2024-02-26T02:36:59;6.30;99.90
39347;DHT22;26262;49.836;6.632;2024-02-26T02:39:25;6.30;99.90
39347;DHT22;26262;49.836;6.632;2024-02-26T02:41:50;6.30;99.90
39347;DHT22;26262;49.836;6.632;2024-02-26T02:44:16;6.20;99.90
39347;DHT22;26262;49.836;6.632;2024-02-26T02:46:42;6.20;99.90
39347;DHT22;26262;49.836;6.632;2024-02-26T02:49:09;6.20;99.90
39347;DHT22;26262;49.836;6.632;2024-02-26T02:51:35;6.30;99.90
39347;DHT22;26262;49.836;6.632;2024-02-26T02:54:01;6.20;99.90
39347;DHT22;26262;49.836;6.632;2024-02-26T02:56:27;6.10;99.90
39347;DHT22;26262;49.836;6.632;2024-02-26T02:58:53;6.20;99.90
39347;DHT22;26262;49.836;6.632;2024-02-26T03:01:18;6.20;99.90
39347;DHT22;26262;49.836;6.632;2024-02-26T03:03:44;6.20;99.90
39347;DHT22;26262;49.836;6.632;2024-02-26T03:06:09;6.20;99.90
39347;DHT22;26262;49.836;6.632;2024-02-26T03:08:35;6.30;99.90
39347;DHT22;26262;49.836;6.632;2024-02-26T03:11:05;6.30;99.90
39347;DHT22;26262;49.836;6.632;2024-02-26T03:13:31;6.20;99.90
39347;DHT22;26262;49.836;6.632;2024-02-26T03:15:56;6.20;99.90
39347;DHT22;26262;49.836;6.632;2024-02-26T03:18:22;6.20;99.90
39347;DHT22;26262;49.836;6.632;2024-02-26T03:20:48;6.10;99.90
39347;DHT22;26262;49.836;6.632;2024-02-26T03:23:14;6.20;99.90
39347;DHT22;26262;49.836;6.632;2024-02-26T03:25:44;6.10;99.90
39347;DHT22;26262;49.836;6.632;2024-02-26T03:28:09;6.10;99.90
39347;DHT22;26262;49.836;6.632;2024-02-26T03:30:35;6.10;99.90
39347;DHT22;26262;49.836;6.632;2024-02-26T03:33:01;6.10;99.90
39347;DHT22;26262;49.836;6.632;2024-02-26T03:35:26;6.00;99.90
39347;DHT22;26262;49.836;6.632;2024-02-26T03:37:52;6.10;99.90
39347;DHT22;26262;49.836;6.632;2024-02-26T03:40:17;6.10;99.90
39347;DHT22;26262;49.836;6.632;2024-02-26T03:42:45;6.20;99.90
39347;DHT22;26262;49.836;6.632;2024-02-26T03:45:11;6.10;99.90
39347;DHT22;26262;49.836;6.632;2024-02-26T03:47:38;6.00;99.90
39347;DHT22;26262;49.836;6.632;2024-02-26T03:50:05;6.00;99.90
39347;DHT22;26262;49.836;6.632;2024-02-26T03:52:32;6.00;99.90
39347;DHT22;26262;49.836;6.632;2024-02-26T03:54:58;6.00;99.90
39347;DHT22;26262;49.836;6.632;2024-02-26T03:57:23;6.00;99.90
39347;DHT22;26262;49.836;6.632;2024-02-26T03:59:49;6.00;99.90
39347;DHT22;26262;49.836;6.632;2024-02-26T04:02:14;6.00;99.90
39347;DHT22;26262;49.836;6.632;2024-02-26T04:04:41;6.00;99.90
39347;DHT22;26262;49.836;6.632;2024-02-26T04:07:06;6.00;99.90
39347;DHT22;26262;49.836;6.632;2024-02-26T04:09:32;6.00;99.90
39347;DHT22;26262;49.836;6.632;2024-02-26T04:11:58;5.90;99.90
39347;DHT22;26262;49.836;6.632;2024-02-26T04:14:23;6.10;99.90
39347;DHT22;26262;49.836;6.632;2024-02-26T04:16:49;6.00;99.90
39347;DHT22;26262;49.836;6.632;2024-02-26T04:19:17;6.00;99.90
39347;DHT22;26262;49.836;6.632;2024-02-26T04:21:43;6.00;99.90
39347;DHT22;26262;49.836;6.632;2024-02-26T04:24:09;6.00;99.90
39347;DHT22;26262;49.836;6.632;2024-02-26T04:26:34;6.00;99.90
39347;DHT22;26262;49.836;6.632;2024-02-26T04:29:00;6.00;99.90
39347;DHT22;26262;49.836;6.632;2024-02-26T04:31:25;6.10;99.90
39347;DHT22;26262;49.836;6.632;2024-02-26T04:33:54;6.10;99.90
39347;DHT22;26262;49.836;6.632;2024-02-26T04:36:19;6.00;99.90
39347;DHT22;26262;49.836;6.632;2024-02-26T04:38:45;6.00;99.90
39347;DHT22;26262;49.836;6.632;2024-02-26T04:41:11;6.10;99.90
39347;DHT22;26262;49.836;6.632;2024-02-26T04:43:37;6.10;99.90
39347;DHT22;26262;49.836;6.632;2024-02-26T04:46:10;6.00;99.90
39347;DHT22;26262;49.836;6.632;2024-02-26T04:48:36;6.00;99.90
39347;DHT22;26262;49.836;6.632;2024-02-26T04:51:02;6.00;99.90
39347;DHT22;26262;49.836;6.632;2024-02-26T04:53:28;6.00;99.90
39347;DHT22;26262;49.836;6.632;2024-02-26T04:55:54;6.00;99.90
39347;DHT22;26262;49.836;6.632;2024-02-26T04:58:19;6.00;99.90
39347;DHT22;26262;49.836;6.632;2024-02-26T05:00:45;5.90;99.90
39347;DHT22;26262;49.836;6.632;2024-02-26T05:03:10;6.00;99.90
39347;DHT22;26262;49.836;6.632;2024-02-26T05:05:39;6.00;99.90
39347;DHT22;26262;49.836;6.632;2024-02-26T05:08:05;6.00;99.90
39347;DHT22;26262;49.836;6.632;2024-02-26T05:10:32;6.00;99.90
39347;DHT22;26262;49.836;6.632;2024-02-26T05:12:57;6.00;99.90
39347;DHT22;26262;49.836;6.632;2024-02-26T05:15:23;6.00;99.90
39347;DHT22;26262;49.836;6.632;2024-02-26T05:17:48;6.00;99.90
39347;DHT22;26262;49.836;6.632;2024-02-26T05:20:14;5.90;99.90
39347;DHT22;26262;49.836;6.632;2024-02-26T05:22:39;5.90;99.90
39347;DHT22;26262;49.836;6.632;2024-02-26T05:25:05;5.90;99.90
39347;DHT22;26262;49.836;6.632;2024-02-26T05:27:31;5.90;99.90
39347;DHT22;26262;49.836;6.632;2024-02-26T05:29:56;5.90;99.90
39347;DHT22;26262;49.836;6.632;2024-02-26T05:32:22;5.90;99.90
39347;DHT22;26262;49.836;6.632;2024-02-26T05:34:47;5.90;99.90
39347;DHT22;26262;49.836;6.632;2024-02-26T05:37:13;5.90;99.90
39347;DHT22;26262;49.836;6.632;2024-02-26T05:39:38;5.90;99.90
39347;DHT22;26262;49.836;6.632;2024-02-26T05:42:04;5.90;99.90
39347;DHT22;26262;49.836;6.632;2024-02-26T05:44:30;5.90;99.90
39347;DHT22;26262;49.836;6.632;2024-02-26T05:46:56;5.90;99.90
39347;DHT22;26262;49.836;6.632;2024-02-26T05:49:22;5.90;99.90
39347;DHT22;26262;49.836;6.632;2024-02-26T05:51:48;5.90;99.90
39347;DHT22;26262;49.836;6.632;2024-02-26T05:54:13;5.90;99.90
39347;DHT22;26262;49.836;6.632;2024-02-26T05:56:39;5.90;99.90
39347;DHT22;26262;49.836;6.632;2024-02-26T05:59:05;5.90;99.90
39347;DHT22;26262;49.836;6.632;2024-02-26T06:01:30;5.90;99.90
39347;DHT22;26262;49.836;6.632;2024-02-26T06:03:56;5.90;99.90
39347;DHT22;26262;49.836;6.632;2024-02-26T06:06:22;6.00;99.90
39347;DHT22;26262;49.836;6.632;2024-02-26T06:08:49;5.90;99.90
39347;DHT22;26262;49.836;6.632;2024-02-26T06:11:14;6.00;99.90
39347;DHT22;26262;49.836;6.632;2024-02-26T06:13:40;6.00;99.90
39347;DHT22;26262;49.836;6.632;2024-02-26T06:16:07;5.90;99.90
39347;DHT22;26262;49.836;6.632;2024-02-26T06:18:33;5.90;99.90
39347;DHT22;26262;49.836;6.632;2024-02-26T06:20:58;5.90;99.90
39347;DHT22;26262;49.836;6.632;2024-02-26T06:23:25;6.00;99.90
39347;DHT22;26262;49.836;6.632;2024-02-26T06:25:51;6.10;99.90
39347;DHT22;26262;49.836;6.632;2024-02-26T06:28:17;6.00;99.90
39347;DHT22;26262;49.836;6.632;2024-02-26T06:30:43;6.00;99.90
39347;DHT22;26262;49.836;6.632;2024-02-26T06:33:08;6.00;99.90
39347;DHT22;26262;49.836;6.632;2024-02-26T06:35:34;5.90;99.90
39347;DHT22;26262;49.836;6.632;2024-02-26T06:37:59;5.90;99.90
39347;DHT22;26262;49.836;6.632;2024-02-26T06:40:25;5.90;99.90
39347;DHT22;26262;49.836;6.632;2024-02-26T06:42:51;5.90;99.90
39347;DHT22;26262;49.836;6.632;2024-02-26T06:45:17;5.90;99.90
39347;DHT22;26262;49.836;6.632;2024-02-26T06:47:43;6.00;99.90
39347;DHT22;26262;49.836;6.632;2024-02-26T06:50:11;6.00;99.90
39347;DHT22;26262;49.836;6.632;2024-02-26T06:52:36;6.00;99.90
39347;DHT22;26262;49.836;6.632;2024-02-26T06:55:02;6.00;99.90
39347;DHT22;26262;49.836;6.632;2024-02-26T06:57:28;6.10;99.90
39347;DHT22;26262;49.836;6.632;2024-02-26T06:59:53;6.10;99.90
39347;DHT22;26262;49.836;6.632;2024-02-26T07:02:19;6.10;99.90
39347;DHT22;26262;49.836;6.632;2024-02-26T07:04:44;6.10;99.90
39347;DHT22;26262;49.836;6.632;2024-02-26T07:07:10;6.10;99.90
39347;DHT22;26262;49.836;6.632;2024-02-26T07:09:36;6.10;99.90
39347;DHT22;26262;49.836;6.632;2024-02-26T07:12:01;6.10;99.90
39347;DHT22;26262;49.836;6.632;2024-02-26T07:14:27;6.10;99.90
39347;DHT22;26262;49.836;6.632;2024-02-26T07:16:53;6.10;99.90
39347;DHT22;26262;49.836;6.632;2024-02-26T07:19:19;6.10;99.90
39347;DHT22;26262;49.836;6.632;2024-02-26T07:21:44;6.10;99.90
39347;DHT22;26262;49.836;6.632;2024-02-26T07:24:10;6.00;99.90
39347;DHT22;26262;49.836;6.632;2024-02-26T07:26:35;6.00;99.90
39347;DHT22;26262;49.836;6.632;2024-02-26T07:29:01;6.10;99.90
39347;DHT22;26262;49.836;6.632;2024-02-26T07:31:26;6.20;99.90
39347;DHT22;26262;49.836;6.632;2024-02-26T07:33:52;6.20;99.90
39347;DHT22;26262;49.836;6.632;2024-02-26T07:36:17;6.20;99.90
39347;DHT22;26262;49.836;6.632;2024-02-26T07:38:43;6.20;99.90
39347;DHT22;26262;49.836;6.632;2024-02-26T07:41:08;6.20;99.90
39347;DHT22;26262;49.836;6.632;2024-02-26T07:43:34;6.10;99.90
39347;DHT22;26262;49.836;6.632;2024-02-26T07:46:00;6.10;99.90
39347;DHT22;26262;49.836;6.632;2024-02-26T07:48:26;6.10;99.90
39347;DHT22;26262;49.836;6.632;2024-02-26T07:50:51;6.10;99.90
39347;DHT22;26262;49.836;6.632;2024-02-26T07:53:17;6.10;99.90
39347;DHT22;26262;49.836;6.632;2024-02-26T07:55:42;6.10;99.90
39347;DHT22;26262;49.836;6.632;2024-02-26T07:58:08;6.10;99.90
39347;DHT22;26262;49.836;6.632;2024-02-26T08:00:33;6.10;99.90
39347;DHT22;26262;49.836;6.632;2024-02-26T08:02:59;6.10;99.90
39347;DHT22;26262;49.836;6.632;2024-02-26T08:05:24;6.20;99.90
39347;DHT22;26262;49.836;6.632;2024-02-26T08:07:50;6.20;99.90
39347;DHT22;26262;49.836;6.632;2024-02-26T08:10:16;6.20;99.90
39347;DHT22;26262;49.836;6.632;2024-02-26T08:12:41;6.20;99.90
39347;DHT22;26262;49.836;6.632;2024-02-26T08:15:08;6.20;99.90
39347;DHT22;26262;49.836;6.632;2024-02-26T08:17:33;6.30;99.90
39347;DHT22;26262;49.836;6.632;2024-02-26T08:19:59;6.30;99.90
39347;DHT22;26262;49.836;6.632;2024-02-26T08:22:25;6.30;99.90
39347;DHT22;26262;49.836;6.632;2024-02-26T08:24:51;6.30;99.90
39347;DHT22;26262;49.836;6.632;2024-02-26T08:27:17;6.30;99.90
39347;DHT22;26262;49.836;6.632;2024-02-26T08:29:42;6.30;99.90
39347;DHT22;26262;49.836;6.632;2024-02-26T08:32:08;6.30;99.90
39347;DHT22;26262;49.836;6.632;2024-02-26T08:34:33;6.30;99.90
39347;DHT22;26262;49.836;6.632;2024-02-26T08:36:59;6.30;99.90
39347;DHT22;26262;49.836;6.632;2024-02-26T08:39:25;6.40;99.90
39347;DHT22;26262;49.836;6.632;2024-02-26T08:41:51;6.40;99.90
39347;DHT22;26262;49.836;6.632;2024-02-26T08:44:17;6.40;99.90
39347;DHT22;26262;49.836;6.632;2024-02-26T08:46:42;6.40;99.90
39347;DHT22;26262;49.836;6.632;2024-02-26T08:49:08;6.50;99.90
39347;DHT22;26262;49.836;6.632;2024-02-26T08:51:33;6.50;99.90
39347;DHT22;26262;49.836;6.632;2024-02-26T08:53:59;6.60;99.90
39347;DHT22;26262;49.836;6.632;2024-02-26T08:56:24;6.60;99.90
39347;DHT22;26262;49.836;6.632;2024-02-26T08:58:50;6.60;99.90
39347;DHT22;26262;49.836;6.632;2024-02-26T09:01:18;6.60;99.90
39347;DHT22;26262;49.836;6.632;2024-02-26T09:03:44;6.70;99.90
39347;DHT22;26262;49.836;6.632;2024-02-26T09:06:10;6.70;99.90
39347;DHT22;26262;49.836;6.632;2024-02-26T09:08:37;6.70;99.90
39347;DHT22;26262;49.836;6.632;2024-02-26T09:11:03;6.80;99.90
39347;DHT22;26262;49.836;6.632;2024-02-26T09:13:29;6.80;99.90
39347;DHT22;26262;49.836;6.632;2024-02-26T09:15:54;6.90;99.90
39347;DHT22;26262;49.836;6.632;2024-02-26T09:18:20;6.90;99.90
39347;DHT22;26262;49.836;6.632;2024-02-26T09:20:45;6.90;99.90
39347;DHT22;26262;49.836;6.632;2024-02-26T09:23:11;7.00;99.90
39347;DHT22;26262;49.836;6.632;2024-02-26T09:25:37;7.20;99.90
39347;DHT22;26262;49.836;6.632;2024-02-26T09:28:02;7.30;99.90
39347;DHT22;26262;49.836;6.632;2024-02-26T09:30:28;7.30;99.90
39347;DHT22;26262;49.836;6.632;2024-02-26T09:32:54;7.30;99.90
39347;DHT22;26262;49.836;6.632;2024-02-26T09:35:20;7.30;99.90
39347;DHT22;26262;49.836;6.632;2024-02-26T09:37:46;7.30;99.90
39347;DHT22;26262;49.836;6.632;2024-02-26T09:40:14;7.30;99.90
39347;DHT22;26262;49.836;6.632;2024-02-26T09:42:44;7.40;99.90
39347;DHT22;26262;49.836;6.632;2024-02-26T09:45:17;7.40;99.90
39347;DHT22;26262;49.836;6.632;2024-02-26T09:47:43;7.40;99.90
39347;DHT22;26262;49.836;6.632;2024-02-26T09:50:09;7.50;99.90
39347;DHT22;26262;49.836;6.632;2024-02-26T09:52:39;7.60;99.90
39347;DHT22;26262;49.836;6.632;2024-02-26T09:55:08;7.60;99.90
39347;DHT22;26262;49.836;6.632;2024-02-26T09:57:36;7.60;99.90
39347;DHT22;26262;49.836;6.632;2024-02-26T10:00:03;7.70;99.90
39347;DHT22;26262;49.836;6.632;2024-02-26T10:02:31;7.70;99.90
39347;DHT22;26262;49.836;6.632;2024-02-26T10:04:59;7.60;99.90
39347;DHT22;26262;49.836;6.632;2024-02-26T10:07:30;7.60;99.90
39347;DHT22;26262;49.836;6.632;2024-02-26T10:09:56;7.60;99.90
39347;DHT22;26262;49.836;6.632;2024-02-26T10:12:21;7.60;99.90
39347;DHT22;26262;49.836;6.632;2024-02-26T10:14:48;7.60;99.90
39347;DHT22;26262;49.836;6.632;2024-02-26T10:17:14;7.70;99.90
39347;DHT22;26262;49.836;6.632;2024-02-26T10:19:40;7.70;99.90
39347;DHT22;26262;49.836;6.632;2024-02-26T10:22:05;7.70;99.90
39347;DHT22;26262;49.836;6.632;2024-02-26T10:24:31;7.70;99.90
39347;DHT22;26262;49.836;6.632;2024-02-26T10:26:57;7.80;99.90
39347;DHT22;26262;49.836;6.632;2024-02-26T10:29:26;7.90;99.90
39347;DHT22;26262;49.836;6.632;2024-02-26T10:31:52;8.00;99.90
39347;DHT22;26262;49.836;6.632;2024-02-26T10:34:18;8.00;99.90
39347;DHT22;26262;49.836;6.632;2024-02-26T10:36:43;8.00;99.90
39347;DHT22;26262;49.836;6.632;2024-02-26T10:39:12;8.10;99.90
39347;DHT22;26262;49.836;6.632;2024-02-26T10:41:37;8.10;99.90
39347;DHT22;26262;49.836;6.632;2024-02-26T10:44:04;8.20;99.90
39347;DHT22;26262;49.836;6.632;2024-02-26T10:46:29;8.30;99.90
39347;DHT22;26262;49.836;6.632;2024-02-26T10:48:56;8.40;99.90
39347;DHT22;26262;49.836;6.632;2024-02-26T10:51:28;8.50;99.90
39347;DHT22;26262;49.836;6.632;2024-02-26T10:53:58;8.60;99.90
39347;DHT22;26262;49.836;6.632;2024-02-26T10:56:28;8.60;99.90
39347;DHT22;26262;49.836;6.632;2024-02-26T10:58:55;8.60;99.90
39347;DHT22;26262;49.836;6.632;2024-02-26T11:01:21;8.60;99.90
39347;DHT22;26262;49.836;6.632;2024-02-26T11:03:52;8.70;99.90
39347;DHT22;26262;49.836;6.632;2024-02-26T11:06:26;8.70;99.90
39347;DHT22;26262;49.836;6.632;2024-02-26T11:08:52;8.80;99.90
39347;DHT22;26262;49.836;6.632;2024-02-26T11:11:18;8.90;99.90
39347;DHT22;26262;49.836;6.632;2024-02-26T11:13:47;9.00;99.90
39347;DHT22;26262;49.836;6.632;2024-02-26T11:16:21;9.10;99.90
39347;DHT22;26262;49.836;6.632;2024-02-26T11:18:49;9.30;99.90
39347;DHT22;26262;49.836;6.632;2024-02-26T11:21:17;9.60;99.90
39347;DHT22;26262;49.836;6.632;2024-02-26T11:23:45;9.90;99.90
39347;DHT22;26262;49.836;6.632;2024-02-26T11:26:11;10.00;99.90
39347;DHT22;26262;49.836;6.632;2024-02-26T11:28:39;10.20;99.90
39347;DHT22;26262;49.836;6.632;2024-02-26T11:31:05;10.30;99.90
39347;DHT22;26262;49.836;6.632;2024-02-26T11:33:33;10.30;99.90
39347;DHT22;26262;49.836;6.632;2024-02-26T11:36:11;10.40;99.90
39347;DHT22;26262;49.836;6.632;2024-02-26T11:38:37;10.50;99.90
39347;DHT22;26262;49.836;6.632;2024-02-26T11:41:04;10.70;99.90
39347;DHT22;26262;49.836;6.632;2024-02-26T11:44:01;10.80;99.90
39347;DHT22;26262;49.836;6.632;2024-02-26T11:46:32;10.90;99.90
39347;DHT22;26262;49.836;6.632;2024-02-26T11:49:02;11.00;99.90
39347;DHT22;26262;49.836;6.632;2024-02-26T11:51:32;11.00;99.90
39347;DHT22;26262;49.836;6.632;2024-02-26T11:53:57;11.00;99.90
39347;DHT22;26262;49.836;6.632;2024-02-26T11:56:24;10.90;99.90
39347;DHT22;26262;49.836;6.632;2024-02-26T12:01:47;10.70;99.90
39347;DHT22;26262;49.836;6.632;2024-02-26T12:04:19;10.60;99.90
39347;DHT22;26262;49.836;6.632;2024-02-26T12:06:51;10.50;99.90
39347;DHT22;26262;49.836;6.632;2024-02-26T12:09:39;10.40;99.90
39347;DHT22;26262;49.836;6.632;2024-02-26T12:12:07;10.30;99.90
39347;DHT22;26262;49.836;6.632;2024-02-26T12:14:40;10.30;99.90
39347;DHT22;26262;49.836;6.632;2024-02-26T12:17:19;10.30;99.90
39347;DHT22;26262;49.836;6.632;2024-02-26T12:19:45;10.40;99.90
39347;DHT22;26262;49.836;6.632;2024-02-26T12:22:13;10.40;99.90
39347;DHT22;26262;49.836;6.632;2024-02-26T12:24:39;10.40;99.90
39347;DHT22;26262;49.836;6.632;2024-02-26T12:27:04;10.50;99.90
39347;DHT22;26262;49.836;6.632;2024-02-26T12:29:31;10.40;99.90
39347;DHT22;26262;49.836;6.632;2024-02-26T12:31:57;10.50;99.90
39347;DHT22;26262;49.836;6.632;2024-02-26T12:34:23;10.50;99.90
39347;DHT22;26262;49.836;6.632;2024-02-26T12:36:48;10.60;99.90
39347;DHT22;26262;49.836;6.632;2024-02-26T12:39:14;10.70;99.90
39347;DHT22;26262;49.836;6.632;2024-02-26T12:41:40;10.90;99.90
39347;DHT22;26262;49.836;6.632;2024-02-26T12:44:07;11.00;99.90
39347;DHT22;26262;49.836;6.632;2024-02-26T12:46:33;11.10;99.90
39347;DHT22;26262;49.836;6.632;2024-02-26T12:48:59;11.10;99.90
39347;DHT22;26262;49.836;6.632;2024-02-26T12:51:27;11.20;99.90
39347;DHT22;26262;49.836;6.632;2024-02-26T12:53:55;11.30;99.90
39347;DHT22;26262;49.836;6.632;2024-02-26T12:56:22;11.30;99.90
39347;DHT22;26262;49.836;6.632;2024-02-26T12:58:48;11.30;99.90
39347;DHT22;26262;49.836;6.632;2024-02-26T13:01:17;11.30;99.90
39347;DHT22;26262;49.836;6.632;2024-02-26T13:03:44;11.20;99.90
39347;DHT22;26262;49.836;6.632;2024-02-26T13:06:10;11.10;99.90
39347;DHT22;26262;49.836;6.632;2024-02-26T13:08:36;11.00;99.90
39347;DHT22;26262;49.836;6.632;2024-02-26T13:11:02;10.90;99.90
39347;DHT22;26262;49.836;6.632;2024-02-26T13:13:28;10.90;99.90
39347;DHT22;26262;49.836;6.632;2024-02-26T13:16:04;10.80;99.90
39347;DHT22;26262;49.836;6.632;2024-02-26T13:18:30;10.70;99.90
39347;DHT22;26262;49.836;6.632;2024-02-26T13:21:12;10.60;99.90
39347;DHT22;26262;49.836;6.632;2024-02-26T13:23:39;10.60;99.90
39347;DHT22;26262;49.836;6.632;2024-02-26T13:26:05;10.60;99.90
39347;DHT22;26262;49.836;6.632;2024-02-26T13:28:31;10.50;99.90
39347;DHT22;26262;49.836;6.632;2024-02-26T13:30:58;10.50;99.90
39347;DHT22;26262;49.836;6.632;2024-02-26T13:33:25;10.50;99.90
39347;DHT22;26262;49.836;6.632;2024-02-26T13:35:52;10.50;99.90
39347;DHT22;26262;49.836;6.632;2024-02-26T13:38:18;10.40;99.90
39347;DHT22;26262;49.836;6.632;2024-02-26T13:40:43;10.40;99.90
39347;DHT22;26262;49.836;6.632;2024-02-26T13:43:09;10.40;99.90
39347;DHT22;26262;49.836;6.632;2024-02-26T13:45:36;10.40;99.90
39347;DHT22;26262;49.836;6.632;2024-02-26T13:48:03;10.50;99.90
39347;DHT22;26262;49.836;6.632;2024-02-26T13:50:29;10.50;99.90
39347;DHT22;26262;49.836;6.632;2024-02-26T13:52:55;10.50;99.90
39347;DHT22;26262;49.836;6.632;2024-02-26T13:55:22;10.50;99.90
39347;DHT22;26262;49.836;6.632;2024-02-26T13:57:49;10.40;99.90
39347;DHT22;26262;49.836;6.632;2024-02-26T14:00:17;10.40;99.90
39347;DHT22;26262;49.836;6.632;2024-02-26T14:02:43;10.40;99.90
39347;DHT22;26262;49.836;6.632;2024-02-26T14:05:08;10.50;99.90
39347;DHT22;26262;49.836;6.632;2024-02-26T14:07:34;10.40;99.90
39347;DHT22;26262;49.836;6.632;2024-02-26T14:09:59;10.40;99.90
39347;DHT22;26262;49.836;6.632;2024-02-26T14:12:25;10.40;99.90
39347;DHT22;26262;49.836;6.632;2024-02-26T14:14:51;10.40;99.90
39347;DHT22;26262;49.836;6.632;2024-02-26T14:17:18;10.30;99.90
39347;DHT22;26262;49.836;6.632;2024-02-26T14:19:48;10.30;99.90
39347;DHT22;26262;49.836;6.632;2024-02-26T14:22:14;10.30;99.90
39347;DHT22;26262;49.836;6.632;2024-02-26T14:24:40;10.20;99.90
39347;DHT22;26262;49.836;6.632;2024-02-26T14:27:08;10.20;99.90
39347;DHT22;26262;49.836;6.632;2024-02-26T14:29:34;10.20;99.90
39347;DHT22;26262;49.836;6.632;2024-02-26T14:32:00;10.20;99.90
39347;DHT22;26262;49.836;6.632;2024-02-26T14:34:27;10.10;99.90
39347;DHT22;26262;49.836;6.632;2024-02-26T14:36:52;10.10;99.90
39347;DHT22;26262;49.836;6.632;2024-02-26T14:39:18;10.20;99.90
39347;DHT22;26262;49.836;6.632;2024-02-26T14:41:44;10.30;99.90
39347;DHT22;26262;49.836;6.632;2024-02-26T14:44:09;10.30;99.90
39347;DHT22;26262;49.836;6.632;2024-02-26T14:46:36;10.30;99.90
39347;DHT22;26262;49.836;6.632;2024-02-26T14:49:02;10.20;99.90
39347;DHT22;26262;49.836;6.632;2024-02-26T14:51:27;10.10;99.90
39347;DHT22;26262;49.836;6.632;2024-02-26T14:53:53;10.20;99.90
39347;DHT22;26262;49.836;6.632;2024-02-26T14:56:18;10.10;99.90
39347;DHT22;26262;49.836;6.632;2024-02-26T14:58:44;10.10;99.90
39347;DHT22;26262;49.836;6.632;2024-02-26T15:01:11;10.10;99.90
39347;DHT22;26262;49.836;6.632;2024-02-26T15:03:37;10.20;99.90
39347;DHT22;26262;49.836;6.632;2024-02-26T15:06:03;10.20;99.90
39347;DHT22;26262;49.836;6.632;2024-02-26T15:08:28;10.20;99.90
39347;DHT22;26262;49.836;6.632;2024-02-26T15:10:54;10.20;99.90
39347;DHT22;26262;49.836;6.632;2024-02-26T15:13:20;10.10;99.90
39347;DHT22;26262;49.836;6.632;2024-02-26T15:15:45;10.10;99.90
39347;DHT22;26262;49.836;6.632;2024-02-26T15:18:11;10.10;99.90
39347;DHT22;26262;49.836;6.632;2024-02-26T15:20:41;10.10;99.90
39347;DHT22;26262;49.836;6.632;2024-02-26T15:23:08;10.10;99.90
39347;DHT22;26262;49.836;6.632;2024-02-26T15:25:34;10.10;99.90
39347;DHT22;26262;49.836;6.632;2024-02-26T15:28:00;10.10;99.90
39347;DHT22;26262;49.836;6.632;2024-02-26T15:30:26;10.10;99.90
39347;DHT22;26262;49.836;6.632;2024-02-26T15:32:57;10.10;99.90
39347;DHT22;26262;49.836;6.632;2024-02-26T15:35:22;10.10;99.90
39347;DHT22;26262;49.836;6.632;2024-02-26T15:37:48;10.00;99.90
39347;DHT22;26262;49.836;6.632;2024-02-26T15:40:14;10.00;99.90